sensor_id;sensor_type;location;lat;lon;timestamp;P1;durP1;ratioP1;P2;durP2;ratioP2
2438;SDS011;14509;47.992;7.848;2022-10-04T00:00:40;5.07;;;4.43;;
2438;SDS011;14509;47.992;7.848;2022-10-04T00:02:43;5.40;;;4.07;;
2438;SDS011;14509;47.992;7.848;2022-10-04T00:04:50;6.43;;;4.93;;
2438;SDS011;14509;47.992;7.848;2022-10-04T00:07:00;6.87;;;6.10;;
2438;SDS011;14509;47.992;7.848;2022-10-04T00:09:06;7.63;;;5.57;;
2438;SDS011;14509;47.992;7.848;2022-10-04T00:11:14;6.83;;;5.80;;
2438;SDS011;14509;47.992;7.848;2022-10-04T00:13:22;8.00;;;5.57;;
2438;SDS011;14509;47.992;7.848;2022-10-04T00:15:26;9.13;;;5.40;;
2438;SDS011;14509;47.992;7.848;2022-10-04T00:17:30;8.13;;;5.30;;
2438;SDS011;14509;47.992;7.848;2022-10-04T00:19:41;5.00;;;4.57;;
2438;SDS011;14509;47.992;7.848;2022-10-04T00:24:18;5.70;;;4.40;;
2438;SDS011;14509;47.992;7.848;2022-10-04T00:31:34;8.23;;;4.50;;
2438;SDS011;14509;47.992;7.848;2022-10-04T00:36:47;6.87;;;4.97;;
2438;SDS011;14509;47.992;7.848;2022-10-04T00:39:03;5.90;;;4.30;;
2438;SDS011;14509;47.992;7.848;2022-10-04T00:41:15;5.70;;;4.90;;
2438;SDS011;14509;47.992;7.848;2022-10-04T00:43:19;10.30;;;4.37;;
2438;SDS011;14509;47.992;7.848;2022-10-04T00:45:32;7.47;;;4.77;;
2438;SDS011;14509;47.992;7.848;2022-10-04T00:47:40;6.80;;;5.13;;
2438;SDS011;14509;47.992;7.848;2022-10-04T00:50:00;5.00;;;4.50;;
2438;SDS011;14509;47.992;7.848;2022-10-04T00:52:11;6.00;;;5.40;;
2438;SDS011;14509;47.992;7.848;2022-10-04T00:54:16;8.83;;;4.40;;
2438;SDS011;14509;47.992;7.848;2022-10-04T00:56:24;7.10;;;5.10;;
2438;SDS011;14509;47.992;7.848;2022-10-04T00:58:31;5.17;;;4.43;;
2438;SDS011;14509;47.992;7.848;2022-10-04T01:00:37;6.17;;;4.97;;
2438;SDS011;14509;47.992;7.848;2022-10-04T01:02:45;9.27;;;5.23;;
2438;SDS011;14509;47.992;7.848;2022-10-04T01:04:53;5.90;;;4.53;;
2438;SDS011;14509;47.992;7.848;2022-10-04T01:06:58;6.53;;;5.20;;
2438;SDS011;14509;47.992;7.848;2022-10-04T01:09:04;6.10;;;4.30;;
2438;SDS011;14509;47.992;7.848;2022-10-04T01:11:09;6.47;;;5.47;;
2438;SDS011;14509;47.992;7.848;2022-10-04T01:13:16;8.00;;;4.50;;
2438;SDS011;14509;47.992;7.848;2022-10-04T01:15:22;6.37;;;5.43;;
2438;SDS011;14509;47.992;7.848;2022-10-04T01:17:31;8.43;;;4.27;;
2438;SDS011;14509;47.992;7.848;2022-10-04T01:19:33;5.03;;;4.53;;
2438;SDS011;14509;47.992;7.848;2022-10-04T01:21:36;4.73;;;4.20;;
2438;SDS011;14509;47.992;7.848;2022-10-04T01:23:41;4.97;;;4.30;;
2438;SDS011;14509;47.992;7.848;2022-10-04T01:25:46;6.27;;;4.37;;
2438;SDS011;14509;47.992;7.848;2022-10-04T01:27:49;6.90;;;4.67;;
2438;SDS011;14509;47.992;7.848;2022-10-04T01:29:53;7.40;;;5.67;;
2438;SDS011;14509;47.992;7.848;2022-10-04T01:31:55;7.10;;;5.40;;
2438;SDS011;14509;47.992;7.848;2022-10-04T01:33:59;5.50;;;5.00;;
2438;SDS011;14509;47.992;7.848;2022-10-04T01:36:02;7.30;;;4.77;;
2438;SDS011;14509;47.992;7.848;2022-10-04T01:38:04;8.33;;;4.37;;
2438;SDS011;14509;47.992;7.848;2022-10-04T01:40:09;6.50;;;4.67;;
2438;SDS011;14509;47.992;7.848;2022-10-04T01:42:12;7.97;;;4.43;;
2438;SDS011;14509;47.992;7.848;2022-10-04T01:44:20;4.53;;;3.50;;
2438;SDS011;14509;47.992;7.848;2022-10-04T01:46:30;7.50;;;6.03;;
2438;SDS011;14509;47.992;7.848;2022-10-04T01:48:35;7.47;;;5.17;;
2438;SDS011;14509;47.992;7.848;2022-10-04T01:50:42;6.07;;;4.97;;
2438;SDS011;14509;47.992;7.848;2022-10-04T01:52:47;4.50;;;3.73;;
2438;SDS011;14509;47.992;7.848;2022-10-04T01:54:57;5.43;;;4.30;;
2438;SDS011;14509;47.992;7.848;2022-10-04T01:57:06;5.10;;;3.97;;
2438;SDS011;14509;47.992;7.848;2022-10-04T01:59:15;7.37;;;4.80;;
2438;SDS011;14509;47.992;7.848;2022-10-04T02:01:24;8.00;;;4.47;;
2438;SDS011;14509;47.992;7.848;2022-10-04T02:03:31;6.80;;;4.47;;
2438;SDS011;14509;47.992;7.848;2022-10-04T02:05:37;4.97;;;3.90;;
2438;SDS011;14509;47.992;7.848;2022-10-04T02:07:42;9.60;;;4.70;;
2438;SDS011;14509;47.992;7.848;2022-10-04T02:09:46;6.70;;;4.73;;
2438;SDS011;14509;47.992;7.848;2022-10-04T02:11:54;7.93;;;4.23;;
2438;SDS011;14509;47.992;7.848;2022-10-04T02:14:00;8.17;;;4.80;;
2438;SDS011;14509;47.992;7.848;2022-10-04T02:16:07;5.70;;;3.97;;
2438;SDS011;14509;47.992;7.848;2022-10-04T02:18:10;10.83;;;4.43;;
2438;SDS011;14509;47.992;7.848;2022-10-04T02:20:14;13.30;;;5.17;;
2438;SDS011;14509;47.992;7.848;2022-10-04T02:22:18;3.83;;;3.37;;
2438;SDS011;14509;47.992;7.848;2022-10-04T02:24:23;4.67;;;4.10;;
2438;SDS011;14509;47.992;7.848;2022-10-04T02:26:25;5.87;;;4.60;;
2438;SDS011;14509;47.992;7.848;2022-10-04T02:28:27;5.43;;;4.43;;
2438;SDS011;14509;47.992;7.848;2022-10-04T02:30:35;6.43;;;4.40;;
2438;SDS011;14509;47.992;7.848;2022-10-04T02:32:40;8.70;;;5.83;;
2438;SDS011;14509;47.992;7.848;2022-10-04T02:34:58;10.13;;;4.37;;
2438;SDS011;14509;47.992;7.848;2022-10-04T02:37:01;5.37;;;4.20;;
2438;SDS011;14509;47.992;7.848;2022-10-04T02:39:05;8.67;;;4.83;;
2438;SDS011;14509;47.992;7.848;2022-10-04T02:41:15;5.70;;;4.53;;
2438;SDS011;14509;47.992;7.848;2022-10-04T02:43:23;7.20;;;4.10;;
2438;SDS011;14509;47.992;7.848;2022-10-04T02:45:32;6.73;;;4.23;;
2438;SDS011;14509;47.992;7.848;2022-10-04T02:47:43;6.23;;;4.83;;
2438;SDS011;14509;47.992;7.848;2022-10-04T02:49:52;5.70;;;3.90;;
2438;SDS011;14509;47.992;7.848;2022-10-04T02:51:59;5.93;;;4.40;;
2438;SDS011;14509;47.992;7.848;2022-10-04T02:54:06;8.23;;;5.13;;
2438;SDS011;14509;47.992;7.848;2022-10-04T02:56:17;8.10;;;4.40;;
2438;SDS011;14509;47.992;7.848;2022-10-04T02:58:22;5.97;;;5.37;;
2438;SDS011;14509;47.992;7.848;2022-10-04T03:00:26;7.50;;;5.27;;
2438;SDS011;14509;47.992;7.848;2022-10-04T03:02:31;8.83;;;6.10;;
2438;SDS011;14509;47.992;7.848;2022-10-04T03:04:36;6.57;;;5.73;;
2438;SDS011;14509;47.992;7.848;2022-10-04T03:06:40;7.40;;;4.93;;
2438;SDS011;14509;47.992;7.848;2022-10-04T03:08:44;7.47;;;5.40;;
2438;SDS011;14509;47.992;7.848;2022-10-04T03:10:48;7.90;;;4.53;;
2438;SDS011;14509;47.992;7.848;2022-10-04T03:12:51;7.57;;;4.90;;
2438;SDS011;14509;47.992;7.848;2022-10-04T03:14:53;5.60;;;4.90;;
2438;SDS011;14509;47.992;7.848;2022-10-04T03:16:57;6.60;;;4.63;;
2438;SDS011;14509;47.992;7.848;2022-10-04T03:19:04;6.77;;;5.07;;
2438;SDS011;14509;47.992;7.848;2022-10-04T03:21:08;8.43;;;4.83;;
2438;SDS011;14509;47.992;7.848;2022-10-04T03:23:15;7.70;;;4.37;;
2438;SDS011;14509;47.992;7.848;2022-10-04T03:25:20;6.33;;;5.23;;
2438;SDS011;14509;47.992;7.848;2022-10-04T03:27:30;5.80;;;5.17;;
2438;SDS011;14509;47.992;7.848;2022-10-04T03:29:34;5.43;;;4.90;;
2438;SDS011;14509;47.992;7.848;2022-10-04T03:31:42;7.53;;;4.40;;
2438;SDS011;14509;47.992;7.848;2022-10-04T03:33:46;5.23;;;4.60;;
2438;SDS011;14509;47.992;7.848;2022-10-04T03:35:50;7.60;;;4.70;;
2438;SDS011;14509;47.992;7.848;2022-10-04T03:37:54;6.07;;;5.47;;
2438;SDS011;14509;47.992;7.848;2022-10-04T03:39:57;6.43;;;4.90;;
2438;SDS011;14509;47.992;7.848;2022-10-04T03:42:00;8.00;;;4.70;;
2438;SDS011;14509;47.992;7.848;2022-10-04T03:44:04;7.03;;;4.43;;
2438;SDS011;14509;47.992;7.848;2022-10-04T03:46:12;5.40;;;4.40;;
2438;SDS011;14509;47.992;7.848;2022-10-04T03:48:16;5.23;;;4.40;;
2438;SDS011;14509;47.992;7.848;2022-10-04T03:50:26;6.33;;;4.27;;
2438;SDS011;14509;47.992;7.848;2022-10-04T03:52:33;8.60;;;3.83;;
2438;SDS011;14509;47.992;7.848;2022-10-04T03:54:37;9.00;;;5.20;;
2438;SDS011;14509;47.992;7.848;2022-10-04T03:56:40;4.80;;;4.20;;
2438;SDS011;14509;47.992;7.848;2022-10-04T03:58:41;5.00;;;3.80;;
2438;SDS011;14509;47.992;7.848;2022-10-04T04:00:46;5.27;;;4.37;;
2438;SDS011;14509;47.992;7.848;2022-10-04T04:03:01;14.13;;;4.77;;
2438;SDS011;14509;47.992;7.848;2022-10-04T04:05:08;8.83;;;4.53;;
2438;SDS011;14509;47.992;7.848;2022-10-04T04:07:18;4.37;;;3.97;;
2438;SDS011;14509;47.992;7.848;2022-10-04T04:09:29;6.20;;;5.03;;
2438;SDS011;14509;47.992;7.848;2022-10-04T04:11:38;5.57;;;4.27;;
2438;SDS011;14509;47.992;7.848;2022-10-04T04:13:44;9.10;;;4.93;;
2438;SDS011;14509;47.992;7.848;2022-10-04T04:15:49;6.70;;;4.30;;
2438;SDS011;14509;47.992;7.848;2022-10-04T04:17:54;6.27;;;5.40;;
2438;SDS011;14509;47.992;7.848;2022-10-04T04:19:59;5.17;;;4.20;;
2438;SDS011;14509;47.992;7.848;2022-10-04T04:22:07;6.00;;;4.03;;
2438;SDS011;14509;47.992;7.848;2022-10-04T04:24:17;15.67;;;4.73;;
2438;SDS011;14509;47.992;7.848;2022-10-04T04:26:29;5.93;;;4.47;;
2438;SDS011;14509;47.992;7.848;2022-10-04T04:28:38;4.90;;;4.20;;
2438;SDS011;14509;47.992;7.848;2022-10-04T04:30:43;6.43;;;4.70;;
2438;SDS011;14509;47.992;7.848;2022-10-04T04:32:49;6.87;;;5.23;;
2438;SDS011;14509;47.992;7.848;2022-10-04T04:34:56;8.27;;;5.00;;
2438;SDS011;14509;47.992;7.848;2022-10-04T04:37:00;6.93;;;5.30;;
2438;SDS011;14509;47.992;7.848;2022-10-04T04:39:07;7.40;;;3.97;;
2438;SDS011;14509;47.992;7.848;2022-10-04T04:41:29;5.27;;;4.77;;
2438;SDS011;14509;47.992;7.848;2022-10-04T04:43:34;7.27;;;5.37;;
2438;SDS011;14509;47.992;7.848;2022-10-04T04:45:36;7.20;;;5.17;;
2438;SDS011;14509;47.992;7.848;2022-10-04T04:47:41;7.03;;;5.10;;
2438;SDS011;14509;47.992;7.848;2022-10-04T04:49:44;5.97;;;4.73;;
2438;SDS011;14509;47.992;7.848;2022-10-04T04:51:47;6.87;;;4.30;;
2438;SDS011;14509;47.992;7.848;2022-10-04T04:53:51;5.20;;;4.20;;
2438;SDS011;14509;47.992;7.848;2022-10-04T04:55:56;8.50;;;4.80;;
2438;SDS011;14509;47.992;7.848;2022-10-04T04:58:02;9.23;;;4.40;;
2438;SDS011;14509;47.992;7.848;2022-10-04T05:00:06;7.57;;;4.53;;
2438;SDS011;14509;47.992;7.848;2022-10-04T05:02:29;5.13;;;4.60;;
2438;SDS011;14509;47.992;7.848;2022-10-04T05:04:34;6.73;;;5.13;;
2438;SDS011;14509;47.992;7.848;2022-10-04T05:06:36;6.70;;;4.57;;
2438;SDS011;14509;47.992;7.848;2022-10-04T05:08:47;6.57;;;4.90;;
2438;SDS011;14509;47.992;7.848;2022-10-04T05:10:51;6.43;;;4.40;;
2438;SDS011;14509;47.992;7.848;2022-10-04T05:13:01;6.57;;;4.73;;
2438;SDS011;14509;47.992;7.848;2022-10-04T05:15:07;9.70;;;5.37;;
2438;SDS011;14509;47.992;7.848;2022-10-04T05:17:14;5.90;;;4.33;;
2438;SDS011;14509;47.992;7.848;2022-10-04T05:19:20;4.30;;;3.90;;
2438;SDS011;14509;47.992;7.848;2022-10-04T05:21:26;5.23;;;4.73;;
2438;SDS011;14509;47.992;7.848;2022-10-04T05:23:29;7.30;;;5.03;;
2438;SDS011;14509;47.992;7.848;2022-10-04T05:25:32;6.47;;;4.20;;
2438;SDS011;14509;47.992;7.848;2022-10-04T05:27:34;6.80;;;5.23;;
2438;SDS011;14509;47.992;7.848;2022-10-04T05:29:40;6.70;;;4.77;;
2438;SDS011;14509;47.992;7.848;2022-10-04T05:31:56;7.30;;;3.90;;
2438;SDS011;14509;47.992;7.848;2022-10-04T05:34:12;9.03;;;4.87;;
2438;SDS011;14509;47.992;7.848;2022-10-04T05:36:37;7.03;;;3.90;;
2438;SDS011;14509;47.992;7.848;2022-10-04T05:45:26;8.97;;;4.77;;
2438;SDS011;14509;47.992;7.848;2022-10-04T05:47:30;5.30;;;4.80;;
2438;SDS011;14509;47.992;7.848;2022-10-04T05:49:35;5.40;;;4.67;;
2438;SDS011;14509;47.992;7.848;2022-10-04T05:51:47;6.50;;;4.70;;
2438;SDS011;14509;47.992;7.848;2022-10-04T05:53:51;5.13;;;4.57;;
2438;SDS011;14509;47.992;7.848;2022-10-04T05:55:55;6.43;;;5.13;;
2438;SDS011;14509;47.992;7.848;2022-10-04T05:58:12;5.77;;;4.33;;
2438;SDS011;14509;47.992;7.848;2022-10-04T06:00:30;6.53;;;5.03;;
2438;SDS011;14509;47.992;7.848;2022-10-04T06:02:48;7.23;;;4.77;;
2438;SDS011;14509;47.992;7.848;2022-10-04T06:05:12;4.13;;;3.73;;
2438;SDS011;14509;47.992;7.848;2022-10-04T06:07:20;4.67;;;4.13;;
2438;SDS011;14509;47.992;7.848;2022-10-04T06:09:43;4.77;;;3.87;;
2438;SDS011;14509;47.992;7.848;2022-10-04T06:11:55;6.50;;;4.63;;
2438;SDS011;14509;47.992;7.848;2022-10-04T06:14:15;5.10;;;4.60;;
2438;SDS011;14509;47.992;7.848;2022-10-04T06:16:38;6.70;;;4.10;;
2438;SDS011;14509;47.992;7.848;2022-10-04T06:21:43;5.07;;;4.30;;
2438;SDS011;14509;47.992;7.848;2022-10-04T06:24:02;5.80;;;4.40;;
2438;SDS011;14509;47.992;7.848;2022-10-04T06:26:10;6.10;;;4.40;;
2438;SDS011;14509;47.992;7.848;2022-10-04T06:28:15;5.63;;;4.10;;
2438;SDS011;14509;47.992;7.848;2022-10-04T06:30:22;7.90;;;4.53;;
2438;SDS011;14509;47.992;7.848;2022-10-04T06:32:30;5.80;;;4.73;;
2438;SDS011;14509;47.992;7.848;2022-10-04T06:35:03;6.97;;;4.07;;
2438;SDS011;14509;47.992;7.848;2022-10-04T06:37:21;5.13;;;4.00;;
2438;SDS011;14509;47.992;7.848;2022-10-04T06:39:46;4.90;;;4.30;;
2438;SDS011;14509;47.992;7.848;2022-10-04T06:44:36;5.30;;;4.33;;
2438;SDS011;14509;47.992;7.848;2022-10-04T06:46:49;5.97;;;4.20;;
2438;SDS011;14509;47.992;7.848;2022-10-04T06:49:03;5.43;;;4.23;;
2438;SDS011;14509;47.992;7.848;2022-10-04T06:51:33;9.37;;;4.23;;
2438;SDS011;14509;47.992;7.848;2022-10-04T06:53:46;7.57;;;4.83;;
2438;SDS011;14509;47.992;7.848;2022-10-04T06:56:02;6.53;;;4.47;;
2438;SDS011;14509;47.992;7.848;2022-10-04T07:01:00;6.40;;;4.00;;
2438;SDS011;14509;47.992;7.848;2022-10-04T07:03:08;6.40;;;4.20;;
2438;SDS011;14509;47.992;7.848;2022-10-04T07:05:19;4.37;;;3.97;;
2438;SDS011;14509;47.992;7.848;2022-10-04T07:07:30;7.50;;;3.50;;
2438;SDS011;14509;47.992;7.848;2022-10-04T07:09:35;4.60;;;4.00;;
2438;SDS011;14509;47.992;7.848;2022-10-04T07:11:42;6.07;;;3.80;;
2438;SDS011;14509;47.992;7.848;2022-10-04T07:13:50;4.47;;;4.03;;
2438;SDS011;14509;47.992;7.848;2022-10-04T07:15:58;3.77;;;3.47;;
2438;SDS011;14509;47.992;7.848;2022-10-04T07:18:05;13.13;;;4.80;;
2438;SDS011;14509;47.992;7.848;2022-10-04T07:20:16;4.43;;;4.00;;
2438;SDS011;14509;47.992;7.848;2022-10-04T07:22:25;4.77;;;4.37;;
2438;SDS011;14509;47.992;7.848;2022-10-04T07:24:37;8.93;;;4.10;;
2438;SDS011;14509;47.992;7.848;2022-10-04T07:26:47;4.83;;;3.63;;
2438;SDS011;14509;47.992;7.848;2022-10-04T07:28:50;4.60;;;4.13;;
2438;SDS011;14509;47.992;7.848;2022-10-04T07:31:19;5.60;;;4.30;;
2438;SDS011;14509;47.992;7.848;2022-10-04T07:33:25;9.93;;;6.70;;
2438;SDS011;14509;47.992;7.848;2022-10-04T07:35:32;6.37;;;4.00;;
2438;SDS011;14509;47.992;7.848;2022-10-04T07:37:44;4.17;;;3.77;;
2438;SDS011;14509;47.992;7.848;2022-10-04T07:39:51;5.57;;;3.73;;
2438;SDS011;14509;47.992;7.848;2022-10-04T07:42:08;5.63;;;3.93;;
2438;SDS011;14509;47.992;7.848;2022-10-04T07:44:34;4.13;;;3.47;;
2438;SDS011;14509;47.992;7.848;2022-10-04T07:46:45;5.53;;;3.13;;
2438;SDS011;14509;47.992;7.848;2022-10-04T07:48:52;5.43;;;2.90;;
2438;SDS011;14509;47.992;7.848;2022-10-04T07:50:57;3.50;;;3.20;;
2438;SDS011;14509;47.992;7.848;2022-10-04T07:53:09;3.43;;;3.00;;
2438;SDS011;14509;47.992;7.848;2022-10-04T07:55:20;4.50;;;3.67;;
2438;SDS011;14509;47.992;7.848;2022-10-04T07:57:28;4.40;;;3.90;;
2438;SDS011;14509;47.992;7.848;2022-10-04T07:59:38;5.43;;;4.20;;
2438;SDS011;14509;47.992;7.848;2022-10-04T08:01:48;3.63;;;3.33;;
2438;SDS011;14509;47.992;7.848;2022-10-04T08:06:32;3.33;;;3.03;;
2438;SDS011;14509;47.992;7.848;2022-10-04T08:08:53;8.40;;;3.67;;
2438;SDS011;14509;47.992;7.848;2022-10-04T08:11:18;4.93;;;4.13;;
2438;SDS011;14509;47.992;7.848;2022-10-04T08:13:31;5.53;;;3.43;;
2438;SDS011;14509;47.992;7.848;2022-10-04T08:15:39;4.37;;;3.97;;
2438;SDS011;14509;47.992;7.848;2022-10-04T08:17:46;4.10;;;3.40;;
2438;SDS011;14509;47.992;7.848;2022-10-04T08:19:56;4.93;;;3.90;;
2438;SDS011;14509;47.992;7.848;2022-10-04T08:22:12;5.67;;;4.50;;
2438;SDS011;14509;47.992;7.848;2022-10-04T08:24:22;5.83;;;5.23;;
2438;SDS011;14509;47.992;7.848;2022-10-04T08:26:36;9.43;;;6.00;;
2438;SDS011;14509;47.992;7.848;2022-10-04T08:28:52;10.10;;;5.90;;
2438;SDS011;14509;47.992;7.848;2022-10-04T08:31:26;6.43;;;4.30;;
2438;SDS011;14509;47.992;7.848;2022-10-04T08:33:40;5.30;;;4.80;;
2438;SDS011;14509;47.992;7.848;2022-10-04T08:35:55;7.33;;;4.87;;
2438;SDS011;14509;47.992;7.848;2022-10-04T08:38:19;8.40;;;5.60;;
2438;SDS011;14509;47.992;7.848;2022-10-04T08:40:48;14.43;;;7.50;;
2438;SDS011;14509;47.992;7.848;2022-10-04T08:46:00;8.67;;;5.77;;
2438;SDS011;14509;47.992;7.848;2022-10-04T08:51:34;6.30;;;5.70;;
2438;SDS011;14509;47.992;7.848;2022-10-04T08:54:22;10.93;;;6.30;;
2438;SDS011;14509;47.992;7.848;2022-10-04T08:59:33;5.47;;;4.97;;
2438;SDS011;14509;47.992;7.848;2022-10-04T09:02:10;6.00;;;5.40;;
2438;SDS011;14509;47.992;7.848;2022-10-04T09:04:38;9.20;;;6.00;;
2438;SDS011;14509;47.992;7.848;2022-10-04T09:06:56;9.10;;;6.47;;
2438;SDS011;14509;47.992;7.848;2022-10-04T09:12:00;5.63;;;5.00;;
2438;SDS011;14509;47.992;7.848;2022-10-04T09:14:28;9.20;;;5.27;;
2438;SDS011;14509;47.992;7.848;2022-10-04T09:16:52;8.50;;;5.97;;
2438;SDS011;14509;47.992;7.848;2022-10-04T09:19:15;7.30;;;6.60;;
2438;SDS011;14509;47.992;7.848;2022-10-04T09:21:27;7.07;;;6.30;;
2438;SDS011;14509;47.992;7.848;2022-10-04T09:26:30;7.43;;;6.57;;
2438;SDS011;14509;47.992;7.848;2022-10-04T09:28:58;8.27;;;6.60;;
2438;SDS011;14509;47.992;7.848;2022-10-04T09:31:34;9.77;;;7.40;;
2438;SDS011;14509;47.992;7.848;2022-10-04T09:33:53;8.03;;;7.13;;
2438;SDS011;14509;47.992;7.848;2022-10-04T09:36:31;10.00;;;7.37;;
2438;SDS011;14509;47.992;7.848;2022-10-04T09:38:53;8.87;;;6.20;;
2438;SDS011;14509;47.992;7.848;2022-10-04T09:41:27;8.13;;;6.70;;
2438;SDS011;14509;47.992;7.848;2022-10-04T09:43:53;8.17;;;6.10;;
2438;SDS011;14509;47.992;7.848;2022-10-04T09:46:25;9.53;;;6.63;;
2438;SDS011;14509;47.992;7.848;2022-10-04T09:48:40;7.27;;;6.47;;
2438;SDS011;14509;47.992;7.848;2022-10-04T09:55:58;9.07;;;6.00;;
2438;SDS011;14509;47.992;7.848;2022-10-04T09:58:22;8.27;;;6.13;;
2438;SDS011;14509;47.992;7.848;2022-10-04T10:00:47;7.07;;;5.53;;
2438;SDS011;14509;47.992;7.848;2022-10-04T10:08:29;5.47;;;5.03;;
2438;SDS011;14509;47.992;7.848;2022-10-04T10:10:38;7.10;;;6.07;;
2438;SDS011;14509;47.992;7.848;2022-10-04T10:13:11;7.00;;;6.30;;
2438;SDS011;14509;47.992;7.848;2022-10-04T10:15:43;7.83;;;5.80;;
2438;SDS011;14509;47.992;7.848;2022-10-04T10:17:59;11.47;;;5.70;;
2438;SDS011;14509;47.992;7.848;2022-10-04T10:20:21;6.90;;;6.17;;
2438;SDS011;14509;47.992;7.848;2022-10-04T10:22:46;6.90;;;6.10;;
2438;SDS011;14509;47.992;7.848;2022-10-04T10:25:12;6.70;;;6.00;;
2438;SDS011;14509;47.992;7.848;2022-10-04T10:27:33;9.40;;;6.40;;
2438;SDS011;14509;47.992;7.848;2022-10-04T10:32:26;7.60;;;6.80;;
2438;SDS011;14509;47.992;7.848;2022-10-04T10:37:33;6.50;;;5.40;;
2438;SDS011;14509;47.992;7.848;2022-10-04T10:39:59;9.90;;;5.83;;
2438;SDS011;14509;47.992;7.848;2022-10-04T10:42:31;9.70;;;6.37;;
2438;SDS011;14509;47.992;7.848;2022-10-04T10:44:58;6.33;;;5.73;;
2438;SDS011;14509;47.992;7.848;2022-10-04T10:47:19;12.37;;;6.80;;
2438;SDS011;14509;47.992;7.848;2022-10-04T10:49:37;9.10;;;7.53;;
2438;SDS011;14509;47.992;7.848;2022-10-04T10:54:43;9.97;;;7.20;;
2438;SDS011;14509;47.992;7.848;2022-10-04T10:57:09;8.60;;;6.47;;
2438;SDS011;14509;47.992;7.848;2022-10-04T11:04:52;8.10;;;6.77;;
2438;SDS011;14509;47.992;7.848;2022-10-04T11:12:34;5.80;;;5.20;;
2438;SDS011;14509;47.992;7.848;2022-10-04T11:17:37;6.70;;;5.20;;
2438;SDS011;14509;47.992;7.848;2022-10-04T11:20:10;6.87;;;5.90;;
2438;SDS011;14509;47.992;7.848;2022-10-04T11:25:22;9.43;;;6.37;;
2438;SDS011;14509;47.992;7.848;2022-10-04T11:27:42;6.93;;;5.03;;
2438;SDS011;14509;47.992;7.848;2022-10-04T11:29:57;7.13;;;4.53;;
2438;SDS011;14509;47.992;7.848;2022-10-04T11:32:24;6.23;;;4.50;;
2438;SDS011;14509;47.992;7.848;2022-10-04T11:35:02;9.13;;;5.20;;
2438;SDS011;14509;47.992;7.848;2022-10-04T11:37:29;7.77;;;5.57;;
2438;SDS011;14509;47.992;7.848;2022-10-04T11:42:10;7.47;;;4.40;;
2438;SDS011;14509;47.992;7.848;2022-10-04T11:44:38;5.30;;;4.53;;
2438;SDS011;14509;47.992;7.848;2022-10-04T11:47:01;4.33;;;3.93;;
2438;SDS011;14509;47.992;7.848;2022-10-04T11:54:30;4.00;;;3.60;;
2438;SDS011;14509;47.992;7.848;2022-10-04T11:59:26;5.80;;;5.20;;
2438;SDS011;14509;47.992;7.848;2022-10-04T12:01:48;6.70;;;5.13;;
2438;SDS011;14509;47.992;7.848;2022-10-04T12:07:02;5.73;;;5.10;;
2438;SDS011;14509;47.992;7.848;2022-10-04T12:09:24;8.80;;;5.87;;
2438;SDS011;14509;47.992;7.848;2022-10-04T12:14:41;6.30;;;5.70;;
2438;SDS011;14509;47.992;7.848;2022-10-04T12:17:05;7.17;;;5.70;;
2438;SDS011;14509;47.992;7.848;2022-10-04T12:19:49;5.70;;;5.10;;
2438;SDS011;14509;47.992;7.848;2022-10-04T12:22:05;7.83;;;5.70;;
2438;SDS011;14509;47.992;7.848;2022-10-04T12:30:03;6.03;;;5.43;;
2438;SDS011;14509;47.992;7.848;2022-10-04T12:32:22;5.53;;;4.90;;
2438;SDS011;14509;47.992;7.848;2022-10-04T12:34:34;7.50;;;5.47;;
2438;SDS011;14509;47.992;7.848;2022-10-04T12:36:46;7.27;;;5.70;;
2438;SDS011;14509;47.992;7.848;2022-10-04T12:39:07;5.57;;;4.63;;
2438;SDS011;14509;47.992;7.848;2022-10-04T12:41:28;5.23;;;4.73;;
2438;SDS011;14509;47.992;7.848;2022-10-04T12:43:38;6.13;;;5.20;;
2438;SDS011;14509;47.992;7.848;2022-10-04T12:45:58;5.00;;;4.53;;
2438;SDS011;14509;47.992;7.848;2022-10-04T12:48:14;7.40;;;5.03;;
2438;SDS011;14509;47.992;7.848;2022-10-04T12:50:29;6.03;;;5.40;;
2438;SDS011;14509;47.992;7.848;2022-10-04T12:52:44;9.10;;;4.87;;
2438;SDS011;14509;47.992;7.848;2022-10-04T12:54:54;6.90;;;4.60;;
2438;SDS011;14509;47.992;7.848;2022-10-04T12:59:48;4.73;;;4.00;;
2438;SDS011;14509;47.992;7.848;2022-10-04T13:01:59;5.60;;;5.03;;
2438;SDS011;14509;47.992;7.848;2022-10-04T13:04:18;7.40;;;4.77;;
2438;SDS011;14509;47.992;7.848;2022-10-04T13:06:28;7.90;;;4.80;;
2438;SDS011;14509;47.992;7.848;2022-10-04T13:08:41;4.97;;;4.30;;
2438;SDS011;14509;47.992;7.848;2022-10-04T13:11:09;5.50;;;4.97;;
2438;SDS011;14509;47.992;7.848;2022-10-04T13:16:02;5.60;;;4.77;;
2438;SDS011;14509;47.992;7.848;2022-10-04T13:18:12;5.50;;;4.70;;
2438;SDS011;14509;47.992;7.848;2022-10-04T13:20:30;7.90;;;5.10;;
2438;SDS011;14509;47.992;7.848;2022-10-04T13:22:42;7.07;;;5.30;;
2438;SDS011;14509;47.992;7.848;2022-10-04T13:24:52;6.13;;;4.03;;
2438;SDS011;14509;47.992;7.848;2022-10-04T13:27:12;5.67;;;4.43;;
2438;SDS011;14509;47.992;7.848;2022-10-04T13:29:22;4.90;;;4.40;;
2438;SDS011;14509;47.992;7.848;2022-10-04T13:31:31;4.57;;;4.13;;
2438;SDS011;14509;47.992;7.848;2022-10-04T13:33:38;6.73;;;4.50;;
2438;SDS011;14509;47.992;7.848;2022-10-04T13:35:52;4.17;;;3.80;;
2438;SDS011;14509;47.992;7.848;2022-10-04T13:38:09;6.80;;;4.50;;
2438;SDS011;14509;47.992;7.848;2022-10-04T13:40:34;4.40;;;3.90;;
2438;SDS011;14509;47.992;7.848;2022-10-04T13:42:53;4.80;;;4.40;;
2438;SDS011;14509;47.992;7.848;2022-10-04T13:45:23;4.67;;;4.23;;
2438;SDS011;14509;47.992;7.848;2022-10-04T13:47:39;5.40;;;3.97;;
2438;SDS011;14509;47.992;7.848;2022-10-04T13:49:57;4.90;;;4.10;;
2438;SDS011;14509;47.992;7.848;2022-10-04T13:52:27;4.90;;;3.43;;
2438;SDS011;14509;47.992;7.848;2022-10-04T13:55:22;6.90;;;4.03;;
2438;SDS011;14509;47.992;7.848;2022-10-04T13:57:50;6.03;;;4.30;;
2438;SDS011;14509;47.992;7.848;2022-10-04T14:00:00;3.93;;;3.53;;
2438;SDS011;14509;47.992;7.848;2022-10-04T14:02:25;4.40;;;4.00;;
2438;SDS011;14509;47.992;7.848;2022-10-04T14:10:00;3.90;;;3.50;;
2438;SDS011;14509;47.992;7.848;2022-10-04T14:15:08;5.90;;;4.10;;
2438;SDS011;14509;47.992;7.848;2022-10-04T14:17:46;5.50;;;4.33;;
2438;SDS011;14509;47.992;7.848;2022-10-04T14:20:26;4.97;;;4.57;;
2438;SDS011;14509;47.992;7.848;2022-10-04T14:25:15;4.70;;;4.27;;
2438;SDS011;14509;47.992;7.848;2022-10-04T14:27:48;8.03;;;3.83;;
2438;SDS011;14509;47.992;7.848;2022-10-04T14:30:19;4.33;;;3.13;;
2438;SDS011;14509;47.992;7.848;2022-10-04T14:35:00;7.30;;;3.93;;
2438;SDS011;14509;47.992;7.848;2022-10-04T14:37:26;4.17;;;3.77;;
2438;SDS011;14509;47.992;7.848;2022-10-04T14:40:01;6.93;;;3.80;;
2438;SDS011;14509;47.992;7.848;2022-10-04T14:42:24;4.87;;;3.40;;
2438;SDS011;14509;47.992;7.848;2022-10-04T14:47:29;3.40;;;3.17;;
2438;SDS011;14509;47.992;7.848;2022-10-04T14:49:46;5.80;;;3.93;;
2438;SDS011;14509;47.992;7.848;2022-10-04T14:52:04;3.50;;;3.20;;
2438;SDS011;14509;47.992;7.848;2022-10-04T14:54:25;4.37;;;3.97;;
2438;SDS011;14509;47.992;7.848;2022-10-04T14:56:49;5.57;;;3.40;;
2438;SDS011;14509;47.992;7.848;2022-10-04T14:59:15;4.77;;;3.40;;
2438;SDS011;14509;47.992;7.848;2022-10-04T15:01:32;3.70;;;3.10;;
2438;SDS011;14509;47.992;7.848;2022-10-04T15:03:39;3.57;;;2.73;;
2438;SDS011;14509;47.992;7.848;2022-10-04T15:06:11;3.37;;;3.07;;
2438;SDS011;14509;47.992;7.848;2022-10-04T15:08:24;3.73;;;3.17;;
2438;SDS011;14509;47.992;7.848;2022-10-04T15:10:46;5.20;;;3.20;;
2438;SDS011;14509;47.992;7.848;2022-10-04T15:12:57;3.50;;;3.00;;
2438;SDS011;14509;47.992;7.848;2022-10-04T15:15:19;2.93;;;2.60;;
2438;SDS011;14509;47.992;7.848;2022-10-04T15:17:36;2.97;;;2.70;;
2438;SDS011;14509;47.992;7.848;2022-10-04T15:20:03;3.37;;;3.07;;
2438;SDS011;14509;47.992;7.848;2022-10-04T15:22:20;3.30;;;3.00;;
2438;SDS011;14509;47.992;7.848;2022-10-04T15:24:27;3.60;;;2.97;;
2438;SDS011;14509;47.992;7.848;2022-10-04T15:26:44;4.53;;;2.73;;
2438;SDS011;14509;47.992;7.848;2022-10-04T15:28:56;3.10;;;2.90;;
2438;SDS011;14509;47.992;7.848;2022-10-04T15:31:05;2.57;;;2.37;;
2438;SDS011;14509;47.992;7.848;2022-10-04T15:33:24;6.00;;;2.57;;
2438;SDS011;14509;47.992;7.848;2022-10-04T15:35:34;4.50;;;3.00;;